WZZ571 ENGM-EPKK
Flight info
| Callsign | WZZ571 |
|---|---|
| Flight time | N/A |
| Altitude | 35000 |
| Route | OKSAT L996 KELIN DCT NEXIL DCT ROE DCT AMROR N983 POLON N133 NEGUV M66 KUKAM |
| Aircraft | A321/M-SDE3FGHIRWY/LB1 |
Departure
| Time | N/A |
|---|---|
| Airport | Oslo-Gardermoen International Airport (ENGM) |
Arrival
| Time | 2026-05-01 13:15 |
|---|---|
| Airport | Kraków John Paul II International Airport (EPKK) |
| Time | Latitude | Longitude | Altitude | Speed | Heading |
|---|---|---|---|---|---|
| 2026-05-01 12:29 | 53.75343 | 16.93374 | 35377 ft | 459 kts | 135° |
| 2026-05-01 12:30 | 53.68122 | 17.04029 | 35361 ft | 460 kts | 135° |
| 2026-05-01 12:31 | 53.63298 | 17.11130 | 35359 ft | 460 kts | 135° |
| 2026-05-01 12:31 | 53.58470 | 17.18223 | 35363 ft | 460 kts | 135° |
| 2026-05-01 12:32 | 53.53643 | 17.25297 | 35361 ft | 460 kts | 135° |
| 2026-05-01 12:32 | 53.46390 | 17.35868 | 35365 ft | 460 kts | 135° |
| 2026-05-01 12:33 | 53.41551 | 17.42910 | 35355 ft | 460 kts | 135° |
| 2026-05-01 12:33 | 53.36709 | 17.49936 | 35361 ft | 461 kts | 135° |
| 2026-05-01 12:34 | 53.31851 | 17.56941 | 35353 ft | 461 kts | 135° |
| 2026-05-01 12:34 | 53.26985 | 17.63942 | 35356 ft | 461 kts | 135° |
| 2026-05-01 12:35 | 53.22117 | 17.70927 | 35378 ft | 462 kts | 135° |
| 2026-05-01 12:35 | 53.17242 | 17.77903 | 35363 ft | 462 kts | 135° |
| 2026-05-01 12:36 | 53.12358 | 17.84857 | 35376 ft | 462 kts | 135° |
| 2026-05-01 12:36 | 53.07471 | 17.91796 | 35346 ft | 462 kts | 135° |
| 2026-05-01 12:37 | 53.02575 | 17.98724 | 35345 ft | 462 kts | 135° |
| 2026-05-01 12:37 | 52.97711 | 18.05600 | 35368 ft | 462 kts | 135° |
| 2026-05-01 12:38 | 52.92806 | 18.12509 | 35358 ft | 462 kts | 135° |
| 2026-05-01 12:38 | 52.87899 | 18.19399 | 35357 ft | 463 kts | 135° |
| 2026-05-01 12:39 | 52.82987 | 18.26276 | 35358 ft | 463 kts | 135° |
| 2026-05-01 12:39 | 52.78070 | 18.33138 | 35357 ft | 463 kts | 135° |
| 2026-05-01 12:40 | 52.73946 | 18.38873 | 35355 ft | 463 kts | 135° |
| 2026-05-01 12:40 | 52.69053 | 18.45656 | 35360 ft | 463 kts | 135° |
| 2026-05-01 12:41 | 52.64124 | 18.52470 | 35355 ft | 463 kts | 135° |
| 2026-05-01 12:41 | 52.59190 | 18.59271 | 35347 ft | 463 kts | 135° |
| 2026-05-01 12:42 | 52.54252 | 18.66055 | 35349 ft | 463 kts | 135° |
| 2026-05-01 12:42 | 52.49309 | 18.72843 | 35344 ft | 463 kts | 135° |
| 2026-05-01 12:43 | 52.44360 | 18.79609 | 35362 ft | 463 kts | 135° |
| 2026-05-01 12:43 | 52.39395 | 18.86355 | 35355 ft | 464 kts | 135° |
| 2026-05-01 12:44 | 52.34426 | 18.93087 | 35352 ft | 464 kts | 135° |
| 2026-05-01 12:45 | 52.24479 | 19.06524 | 35345 ft | 464 kts | 135° |
| 2026-05-01 12:45 | 52.19498 | 19.13216 | 35367 ft | 464 kts | 135° |
| 2026-05-01 12:46 | 52.14512 | 19.19908 | 35353 ft | 464 kts | 135° |
| 2026-05-01 12:46 | 52.09520 | 19.26567 | 35348 ft | 464 kts | 135° |
| 2026-05-01 12:47 | 52.04525 | 19.33219 | 35344 ft | 464 kts | 135° |
| 2026-05-01 12:47 | 51.99530 | 19.39861 | 35343 ft | 464 kts | 135° |
| 2026-05-01 12:48 | 51.94527 | 19.46487 | 35344 ft | 464 kts | 135° |
| 2026-05-01 12:48 | 51.89516 | 19.53104 | 35346 ft | 465 kts | 135° |
| 2026-05-01 12:49 | 51.84327 | 19.59375 | 35343 ft | 473 kts | 149° |
| 2026-05-01 12:49 | 51.81225 | 19.61245 | 35347 ft | 479 kts | 160° |
| 2026-05-01 12:49 | 51.78017 | 19.62735 | 35344 ft | 480 kts | 160° |
| 2026-05-01 12:50 | 51.71583 | 19.65643 | 35135 ft | 481 kts | 160° |
| 2026-05-01 12:50 | 51.68363 | 19.67083 | 34895 ft | 480 kts | 160° |
| 2026-05-01 12:50 | 51.65141 | 19.68526 | 34559 ft | 481 kts | 160° |
| 2026-05-01 12:51 | 51.61888 | 19.69993 | 33532 ft | 490 kts | 159° |
| 2026-05-01 12:51 | 51.58597 | 19.71485 | 32705 ft | 492 kts | 159° |
| 2026-05-01 12:51 | 51.51997 | 19.74473 | 31413 ft | 489 kts | 159° |
| 2026-05-01 12:52 | 51.48727 | 19.75942 | 30814 ft | 487 kts | 159° |
| 2026-05-01 12:52 | 51.42237 | 19.78849 | 29596 ft | 481 kts | 159° |
| 2026-05-01 12:52 | 51.39033 | 19.80281 | 29014 ft | 476 kts | 159° |
| 2026-05-01 12:53 | 51.32718 | 19.83091 | 27873 ft | 467 kts | 159° |
| 2026-05-01 12:53 | 51.29601 | 19.84476 | 27308 ft | 462 kts | 159° |
| 2026-05-01 12:53 | 51.26519 | 19.85847 | 26731 ft | 458 kts | 159° |
| 2026-05-01 12:54 | 51.23460 | 19.87205 | 26203 ft | 454 kts | 159° |
| 2026-05-01 12:54 | 51.17419 | 19.89875 | 25146 ft | 447 kts | 158° |
| 2026-05-01 12:54 | 51.14435 | 19.91192 | 24629 ft | 443 kts | 158° |
| 2026-05-01 12:55 | 51.08546 | 19.93786 | 23598 ft | 435 kts | 158° |
| 2026-05-01 12:55 | 51.05642 | 19.95072 | 23113 ft | 430 kts | 158° |
| 2026-05-01 12:55 | 51.02776 | 19.96340 | 22646 ft | 426 kts | 158° |
| 2026-05-01 12:56 | 50.99933 | 19.97592 | 22172 ft | 422 kts | 158° |
| 2026-05-01 12:56 | 50.97117 | 19.98830 | 21694 ft | 419 kts | 158° |
| 2026-05-01 12:56 | 50.94317 | 20.00059 | 21216 ft | 416 kts | 158° |
| 2026-05-01 12:56 | 50.91533 | 20.01277 | 20739 ft | 413 kts | 158° |
| 2026-05-01 12:57 | 50.88770 | 20.02487 | 20241 ft | 411 kts | 158° |
| 2026-05-01 12:57 | 50.83316 | 20.04872 | 19247 ft | 407 kts | 159° |
| 2026-05-01 12:57 | 50.80591 | 20.06060 | 18752 ft | 406 kts | 159° |
| 2026-05-01 12:58 | 50.77880 | 20.07258 | 18261 ft | 403 kts | 158° |
| 2026-05-01 12:58 | 50.75196 | 20.08476 | 17749 ft | 399 kts | 158° |
| 2026-05-01 12:58 | 50.72543 | 20.09696 | 17275 ft | 395 kts | 158° |
| 2026-05-01 12:59 | 50.67324 | 20.12111 | 16336 ft | 387 kts | 158° |
| 2026-05-01 12:59 | 50.64751 | 20.13291 | 15872 ft | 384 kts | 158° |
| 2026-05-01 12:59 | 50.59664 | 20.15604 | 14941 ft | 377 kts | 158° |
| 2026-05-01 13:00 | 50.54669 | 20.17847 | 14190 ft | 367 kts | 159° |
| 2026-05-01 13:00 | 50.52215 | 20.18905 | 13670 ft | 365 kts | 160° |
| 2026-05-01 13:01 | 50.47334 | 20.20966 | 12702 ft | 361 kts | 160° |
| 2026-05-01 13:01 | 50.44916 | 20.21987 | 12208 ft | 359 kts | 160° |
| 2026-05-01 13:01 | 50.40123 | 20.24017 | 11255 ft | 355 kts | 161° |
| 2026-05-01 13:02 | 50.37747 | 20.25028 | 10783 ft | 353 kts | 161° |
| 2026-05-01 13:07 | 50.03871 | 20.27300 | 4477 ft | 221 kts | 312° |
| 2026-05-01 13:07 | 50.05000 | 20.25735 | 4268 ft | 216 kts | 329° |
| 2026-05-01 13:07 | 50.06387 | 20.24808 | 4142 ft | 218 kts | 346° |
| 2026-05-01 13:08 | 50.07859 | 20.24217 | 4016 ft | 219 kts | 345° |
| 2026-05-01 13:08 | 50.09333 | 20.23610 | 3886 ft | 220 kts | 345° |
| 2026-05-01 13:08 | 50.10727 | 20.22653 | 3767 ft | 219 kts | 326° |
| 2026-05-01 13:08 | 50.11854 | 20.21065 | 3633 ft | 220 kts | 309° |
| 2026-05-01 13:09 | 50.12604 | 20.18995 | 3507 ft | 222 kts | 291° |
| 2026-05-01 13:09 | 50.12889 | 20.16613 | 3382 ft | 227 kts | 272° |
| 2026-05-01 13:09 | 50.12682 | 20.14237 | 3276 ft | 217 kts | 261° |
| 2026-05-01 13:09 | 50.12371 | 20.11972 | 3143 ft | 211 kts | 261° |
| 2026-05-01 13:10 | 50.12069 | 20.09756 | 3041 ft | 208 kts | 261° |
| 2026-05-01 13:10 | 50.11770 | 20.07560 | 2977 ft | 207 kts | 262° |
| 2026-05-01 13:10 | 50.11471 | 20.05360 | 2983 ft | 209 kts | 262° |
| 2026-05-01 13:10 | 50.11168 | 20.03139 | 2987 ft | 209 kts | 262° |
| 2026-05-01 13:11 | 50.10872 | 20.00985 | 3001 ft | 197 kts | 261° |
| 2026-05-01 13:11 | 50.10592 | 19.98939 | 2989 ft | 191 kts | 262° |
| 2026-05-01 13:11 | 50.10326 | 19.97006 | 2915 ft | 175 kts | 262° |
| 2026-05-01 13:11 | 50.10081 | 19.95217 | 2763 ft | 165 kts | 262° |
| 2026-05-01 13:12 | 50.09851 | 19.93542 | 2550 ft | 154 kts | 262° |
| 2026-05-01 13:12 | 50.09632 | 19.91945 | 2359 ft | 148 kts | 261° |
| 2026-05-01 13:12 | 50.09418 | 19.90389 | 2156 ft | 147 kts | 261° |
| 2026-05-01 13:12 | 50.09203 | 19.88826 | 1954 ft | 147 kts | 261° |
| 2026-05-01 13:13 | 50.08990 | 19.87279 | 1741 ft | 148 kts | 260° |
| 2026-05-01 13:13 | 50.08775 | 19.85712 | 1543 ft | 148 kts | 260° |
| 2026-05-01 13:13 | 50.08563 | 19.84154 | 1351 ft | 146 kts | 260° |
| 2026-05-01 13:13 | 50.08350 | 19.82591 | 1154 ft | 147 kts | 259° |
| 2026-05-01 13:14 | 50.08134 | 19.81028 | 973 ft | 148 kts | 261° |
| 2026-05-01 13:14 | 50.07914 | 19.79467 | 808 ft | 146 kts | 261° |
| 2026-05-01 13:14 | 50.07722 | 19.78093 | 787 ft | 114 kts | 257° |
| 2026-05-01 13:14 | 50.07604 | 19.77230 | 793 ft | 53 kts | 257° |
| 2026-05-01 13:15 | 50.07542 | 19.76882 | 795 ft | 18 kts | 230° |
| 2026-05-01 13:15 | 50.07459 | 19.76856 | 793 ft | 13 kts | 169° |
| 2026-05-01 13:15 | 50.07367 | 19.76888 | 789 ft | 11 kts | 168° |
| 2026-05-01 13:15 | 50.07313 | 19.76935 | 789 ft | 8 kts | 112° |
| 2026-05-01 13:16 | 50.07315 | 19.77008 | 789 ft | 6 kts | 80° |
| 2026-05-01 13:16 | 50.07322 | 19.77061 | 789 ft | 8 kts | 78° |
| 2026-05-01 13:16 | 50.07340 | 19.77200 | 789 ft | 17 kts | 78° |
| 2026-05-01 13:17 | 50.07425 | 19.77798 | 789 ft | 21 kts | 77° |
| 2026-05-01 13:17 | 50.07456 | 19.78024 | 789 ft | 22 kts | 78° |
| 2026-05-01 13:18 | 50.07523 | 19.78510 | 789 ft | 24 kts | 78° |
| 2026-05-01 13:18 | 50.07561 | 19.78767 | 789 ft | 25 kts | 77° |
| 2026-05-01 13:18 | 50.07596 | 19.79035 | 789 ft | 26 kts | 78° |
| 2026-05-01 13:18 | 50.07634 | 19.79310 | 789 ft | 26 kts | 78° |
| 2026-05-01 13:19 | 50.07669 | 19.79551 | 789 ft | 21 kts | 78° |
| 2026-05-01 13:19 | 50.07695 | 19.79745 | 789 ft | 15 kts | 77° |
| 2026-05-01 13:19 | 50.07598 | 19.79904 | 789 ft | 14 kts | 167° |
| 2026-05-01 13:20 | 50.07528 | 19.79933 | 789 ft | 9 kts | 150° |
| 2026-05-01 13:20 | 50.07517 | 19.80020 | 789 ft | 8 kts | 77° |
| 2026-05-01 13:20 | 50.07528 | 19.80096 | 789 ft | 5 kts | 63° |
| 2026-05-01 13:21 | 50.07578 | 19.80098 | 789 ft | 0 kts | 349° |